AIRPORT METAR

METAR FOR LIMF
ADDS - METARS form results

(0505 UTC 27 January 2022)
Data provider http://aviationweather.gov/metar/data/
 
METAR text: LIMF 270450Z VRB02KT 0400 R36/1000U FZFG OVC004 M06/M06 Q1025
Conditions at: LIMF (TORINO/CASELLE , IT) observed 0450 UTC 27 January 2022
Temperature: -6.0°C (21°F)
Dewpoint: -6.0°C (21°F) [RH = 100%]
Pressure (altimeter): 30.27 inches Hg (1025.0 mb)
Winds: variable direction winds at 2 MPH (2 knots; 1.0 m/s)
Visibility: 0.25 miles (0.40 km)
Ceiling: 400 feet AGL
Clouds: overcast cloud deck at 400 feet AGL
Weather: FZFG  (freezing fog)

METAR text: LIMF 270420Z 24004KT 0100 R36/0500N FZFG VV001 M05/M05 Q1025
Conditions at: LIMF (TORINO/CASELLE , IT) observed 0420 UTC 27 January 2022
Temperature: -5.0°C (23°F)
Dewpoint: -5.0°C (23°F) [RH = 100%]
Pressure (altimeter): 30.27 inches Hg (1025.0 mb)
Winds: from the WSW (240 degrees) at 5 MPH (4 knots; 2.1 m/s)
Visibility: 0.06 miles (0.10 km)
Ceiling: indefinite ceiling with vertical visibility of 100 feet AGL
Clouds: obscured sky
Weather: FZFG  (freezing fog)

Forecast for: LIMF (TORINO/CASELLE , IT)
Text: TAF LIMF 262300Z 2700/2724 VRB04KT 0100 FZFG BKN002
Forecast period: 0000 to 0900 UTC 27 January 2022
Forecast type: FROM: standard forecast or significant change
Winds: variable direction winds at 5 MPH (4 knots; 2.1 m/s)
Visibility: 0.06 miles (0.10 km)
Ceiling: 200 feet AGL
Clouds: broken clouds at 200 feet AGL
Weather: FZFG  (freezing fog)
Text: BECMG 2709/2711 3000 BR NSC
Forecast period: 0900 to 1900 UTC 27 January 2022
Forecast type: BECOMING: Conditions expected to become as follows by 1100 UTC 27 January 2022
Winds: variable direction winds at 5 MPH (4 knots; 2.1 m/s)
Visibility: 1.86 miles (2.99 km)
Ceiling: unknown
Clouds: missing
Weather: BR  (mist)
Text: BECMG 2719/2721 0400 FZFG BKN003
Forecast period: 1900 UTC 27 January 2022 to 0000 UTC 28 January 2022
Forecast type: BECOMING: Conditions expected to become as follows by 2100 UTC 27 January 2022
Winds: variable direction winds at 5 MPH (4 knots; 2.1 m/s)
Visibility: 0.25 miles (0.40 km)
Ceiling: 300 feet AGL
Clouds: broken clouds at 300 feet AGL
Weather: FZFG  (freezing fog)

AIRPORT MAP

 RUNWAY INFORMATION
Runway 18 Runway length 10827 ft Runway width 197 ft
Runway elevation 981 ft Runway displaced threshold 2378 ft Runway heading 183
Runway 36 Runway length 10827 ft Runway width 197 ft
Runway elevation 933 ft Runway displaced threshold 1148 ft Runway heading 3

 AIRPORT FREQUENCIES
Type APP Name APP Frequency 23.44 MHZ
Type APP Name APP Frequency 129.275 MHZ
Type ATIS Name ATIS Frequency 120.475 MHZ
Type GND Name GND Frequency 121.7 MHZ
Type TWR Name TWR Frequency 118.5 MHZ

 AIRPORT NEAR NAVIGATION AIDS
Type TACAN Name Caselle Frequency 109500 KHZ
Type NDB Name Caselle Frequency 357 KHZ
Type VOR-DME Name Caselle Frequency 116750 KHZ
Type VOR-DME Name Torino Frequency 114500 KHZ
Type NDB Name Torino Frequency 393 KHZ



© 2020 - Royal Sky Service, All Right Reserved.